Dallas, TX

11:42 PM CST on December 17, 2014 (GMT -0600)
North Euless | Change Station
CLOSE
Current Station
Personal Weather Station
Location: Euless, TX
Elevation: 587 ft
Nearby Weather Stations

Elev 587 ft 32.88 °N, 97.09 °W | Updated 2 minutes ago

Light Rain
Light Rain Mist
42.2 °F
Feels Like 42 °F
N
2.5
Wind Variable Wind from ESE
Gusts 4.3 mph

Today
High -- | Low -- °F
--% Chance of Precip.
Yesterday
High -- | Low -- °F
Precip. -- in
7:24 AM 5:24 PM
Waning Crescent, 17% visible
Pressure 30.16 in
Visibility 5.0 miles
Clouds Mostly Cloudy 600 ft
Mostly Cloudy 900 ft
Overcast 1900 ft
Windchill 42 °F
Dew Point 39 °F
Humidity 87%
Rainfall 0.33 in
Snow Depth Not available.
UV 0.0 out of 12
Pollen 8.20 out of 12
Air Quality Not available.
Flu Activity Not available.
METAR KDFW 180453Z 09006KT 5SM -RA BR BKN006 BKN009 OVC019 05/04 A3016 RMK AO2 SLP213 P0008 T00500044

More Conditions Fewer Conditions

Pressure 30.16 in
Visibility 5.0 miles
Clouds Mostly Cloudy 600 ft
Mostly Cloudy 900 ft
Overcast 1900 ft
Windchill 42 °F
Dew Point 39 °F
Humidity 87%
Rainfall 0.33 in
Snow Depth Not available.
UV 0.0 out of 12
Pollen 8.20 out of 12
Air Quality Not available.
Flu Activity Not available.
METAR KDFW 180453Z 09006KT 5SM -RA BR BKN006 BKN009 OVC019 05/04 A3016 RMK AO2 SLP213 P0008 T00500044

More Conditions Fewer Conditions

Nowcast | as of 9:05 PM CST on December 17, 2014

Light rain...scattered showers and some drizzle will continue along and east of a Gainesville to Stephenville to Lampasas line through midnight. Additional rainfall will not amount to much...with less than one tenth of an inch possible. The area will move slowly east at 15 mph. In additional...it will remain cloudy...damp and cold overnight with some fog developing in the late night hours.

×

10-Day Weather Forecast

Almanac

Astronomy

Dec. 17, 2014 Rise Set
Actual Time
Civil Twilight
Nautical Twilight
Astronomical Twilight
Moon
Length of Visible Light
Length of Day
Tomorrow will be .
, % of the Moon is Illuminated

Today's Extremes

State Highs State Lows

Community

WunderPhotos

Upload Photos

1,778,896 photos uploaded!

WunderBlogs® & News

Nearby

Air Quality

  Air Quality AQ Index Pollutant
Not available.

Snow Depth

Station Depth Elevation

Earthquake Activity

City Distance Mag. Time & Date
Minimum magnitude displayed is 2.5.

Coastal Water Temperatures

Place Temperature

Nearby Weather Stations